Time;durP1;ratioP1;P1;durP2;ratioP2;P2;SDS_P1;SDS_P2;PMS_P1;PMS_P2;Temp;Humidity;BMP_temperature;BMP_pressure;BME280_temperature;BME280_humidity;BME280_pressure;Samples;Min_cycle;Max_cycle;Signal;HPM_P1;HPM_P2
2023/10/10 00:00:54;;;;;;;8.23;7.43;;;12.20;99.90;;;;;;5053841;28;20210;-53
2023/10/10 00:03:21;;;;;;;8.33;7.43;;;12.30;99.90;;;;;;5043379;28;21041;-53
2023/10/10 00:05:46;;;;;;;8.30;7.53;;;12.40;99.90;;;;;;5050480;28;20254;-53
2023/10/10 00:08:12;;;;;;;7.73;6.97;;;12.30;99.90;;;;;;5051913;28;20304;-56
2023/10/10 00:10:50;;;;;;;8.37;6.97;;;12.40;99.90;;;;;;5052092;28;20385;-57
2023/10/10 00:13:17;;;;;;;10.57;7.73;;;12.50;99.90;;;;;;5033359;28;20288;-56
2023/10/10 00:15:49;;;;;;;7.87;7.20;;;12.70;99.90;;;;;;5061791;28;20255;-53
2023/10/10 00:18:20;;;;;;;8.60;7.23;;;12.70;99.90;;;;;;5054655;28;20195;-54
2023/10/10 00:21:04;;;;;;;8.67;7.53;;;12.70;99.90;;;;;;5056480;28;20703;-54
2023/10/10 00:23:33;;;;;;;8.83;7.33;;;12.60;99.90;;;;;;5052188;28;20702;-53
2023/10/10 00:25:59;;;;;;;8.33;7.50;;;12.60;99.90;;;;;;5053774;28;20204;-52
2023/10/10 00:28:27;;;;;;;8.67;7.87;;;12.60;99.90;;;;;;5033226;28;20199;-53
2023/10/10 00:30:53;;;;;;;7.63;6.80;;;12.80;99.90;;;;;;5053498;28;20200;-53
2023/10/10 00:33:19;;;;;;;8.30;7.43;;;12.80;99.90;;;;;;5051439;28;20275;-53
2023/10/10 00:35:47;;;;;;;6.67;6.07;;;12.60;99.90;;;;;;5053843;28;20743;-53
2023/10/10 00:38:22;;;;;;;7.47;6.73;;;12.60;99.90;;;;;;5053692;28;20190;-53
2023/10/10 00:40:48;;;;;;;7.03;6.33;;;12.60;99.90;;;;;;5051054;28;20310;-53
2023/10/10 00:43:22;;;;;;;7.60;6.80;;;12.70;99.90;;;;;;5049146;28;20277;-54
2023/10/10 00:45:53;;;;;;;8.03;7.23;;;12.60;99.90;;;;;;5045710;28;20193;-53
2023/10/10 00:48:23;;;;;;;7.50;6.80;;;12.80;99.90;;;;;;5053477;28;20246;-52
2023/10/10 00:50:53;;;;;;;6.90;6.30;;;12.80;99.90;;;;;;5049850;28;20763;-53
2023/10/10 00:53:22;;;;;;;8.73;6.53;;;12.80;99.90;;;;;;5048719;28;20897;-53
2023/10/10 00:55:56;;;;;;;7.73;6.33;;;12.80;99.90;;;;;;5040831;28;20290;-53
2023/10/10 00:58:35;;;;;;;7.60;7.00;;;12.70;99.90;;;;;;5051527;28;20228;-53
2023/10/10 01:01:04;;;;;;;7.17;6.13;;;12.60;99.90;;;;;;5052949;28;20687;-53
2023/10/10 01:03:32;;;;;;;7.27;6.43;;;12.90;99.90;;;;;;5036034;28;20215;-53
2023/10/10 01:06:04;;;;;;;7.27;6.00;;;13.00;99.90;;;;;;5049517;28;20747;-53
2023/10/10 01:08:49;;;;;;;7.43;6.57;;;12.80;99.90;;;;;;5027120;28;20207;-53
2023/10/10 01:11:16;;;;;;;7.10;6.27;;;12.70;99.90;;;;;;5048536;28;20201;-53
2023/10/10 01:13:42;;;;;;;5.93;5.40;;;12.70;99.90;;;;;;5033708;28;20666;-54
2023/10/10 01:16:08;;;;;;;7.27;6.53;;;12.60;99.90;;;;;;5046935;28;20189;-53
2023/10/10 01:18:55;;;;;;;6.50;5.90;;;12.60;99.90;;;;;;5050754;28;20194;-53
2023/10/10 01:21:30;;;;;;;6.40;5.77;;;12.60;99.90;;;;;;5048616;28;20730;-53
2023/10/10 01:24:00;;;;;;;7.17;6.57;;;12.50;99.90;;;;;;5050579;28;20744;-53
2023/10/10 01:26:29;;;;;;;6.47;5.87;;;12.60;99.90;;;;;;5052651;28;20229;-53
2023/10/10 01:28:55;;;;;;;6.20;5.60;;;12.50;99.90;;;;;;5047469;28;20200;-53
2023/10/10 01:31:20;;;;;;;6.77;6.13;;;12.50;99.90;;;;;;5051898;28;20189;-52
2023/10/10 01:33:49;;;;;;;6.27;5.60;;;12.60;99.90;;;;;;5050207;28;20209;-53
2023/10/10 01:36:22;;;;;;;6.80;6.10;;;12.80;99.90;;;;;;5032148;28;20194;-52
2023/10/10 01:38:59;;;;;;;6.87;5.93;;;12.90;99.90;;;;;;5043527;28;20194;-53
2023/10/10 01:41:39;;;;;;;5.87;5.30;;;12.90;99.90;;;;;;5053035;28;20181;-53
2023/10/10 01:44:11;;;;;;;6.47;5.87;;;12.80;99.90;;;;;;5046136;28;20223;-52
2023/10/10 01:46:36;;;;;;;7.50;6.43;;;12.80;99.90;;;;;;5051680;28;20214;-52
2023/10/10 01:49:02;;;;;;;6.33;5.50;;;12.80;99.90;;;;;;5048357;28;20208;-52
2023/10/10 01:51:35;;;;;;;5.77;5.20;;;12.80;99.90;;;;;;5049660;28;20206;-51
2023/10/10 01:54:11;;;;;;;6.23;5.70;;;12.80;99.90;;;;;;5052001;28;20209;-53
2023/10/10 01:56:38;;;;;;;8.53;6.40;;;12.90;99.90;;;;;;5051808;28;20817;-52
2023/10/10 01:59:04;;;;;;;5.60;5.10;;;12.90;99.90;;;;;;5050766;28;20265;-52
2023/10/10 02:01:31;;;;;;;6.67;6.07;;;13.00;99.90;;;;;;5047230;28;20232;-52
2023/10/10 02:03:58;;;;;;;5.67;4.97;;;13.00;99.90;;;;;;5051836;28;20196;-52
2023/10/10 02:06:28;;;;;;;5.80;5.20;;;12.90;99.90;;;;;;5052688;28;20224;-52
2023/10/10 02:09:43;;;;;;;6.60;5.33;;;12.90;99.90;;;;;;5052045;28;20205;-52
2023/10/10 02:11:50;;;;;;;5.63;5.13;;;12.90;99.90;;;;;;5036991;28;20208;-52
2023/10/10 02:14:19;;;;;;;6.67;5.87;;;12.90;99.90;;;;;;5049454;28;20558;-52
2023/10/10 02:16:47;;;;;;;6.40;5.50;;;13.00;99.90;;;;;;5051665;28;20202;-53
2023/10/10 02:19:24;;;;;;;7.60;6.30;;;13.10;99.90;;;;;;5051856;28;20196;-53
2023/10/10 02:21:51;;;;;;;9.80;6.20;;;13.00;99.90;;;;;;5044811;28;20872;-53
2023/10/10 02:26:55;;;;;;;6.63;5.67;;;13.30;99.90;;;;;;5045810;28;20841;-53
2023/10/10 02:29:34;;;;;;;5.63;5.13;;;13.20;99.90;;;;;;5052996;28;20998;-53
2023/10/10 02:32:09;;;;;;;5.97;5.37;;;13.20;99.90;;;;;;5051828;28;20192;-53
2023/10/10 02:34:36;;;;;;;7.33;6.50;;;13.10;99.90;;;;;;5051823;28;20284;-53
2023/10/10 02:37:41;;;;;;;6.87;6.17;;;13.10;99.90;;;;;;5052054;28;20255;-54
2023/10/10 02:40:15;;;;;;;7.07;6.27;;;13.20;99.90;;;;;;5049942;28;20664;-52
2023/10/10 02:43:10;;;;;;;6.43;5.40;;;13.40;99.90;;;;;;5051457;28;20194;-52
2023/10/10 02:45:36;;;;;;;6.20;5.60;;;13.30;99.90;;;;;;5047176;28;20244;-53
2023/10/10 02:48:07;;;;;;;8.23;6.80;;;13.30;99.90;;;;;;5047243;28;20837;-52
2023/10/10 02:50:40;;;;;;;9.10;5.83;;;13.30;99.90;;;;;;5047076;28;20226;-52
2023/10/10 02:53:08;;;;;;;7.80;7.00;;;13.40;99.90;;;;;;5049946;28;20247;-52
2023/10/10 02:55:35;;;;;;;7.53;6.77;;;13.30;99.90;;;;;;5046907;28;20672;-52
2023/10/10 02:58:01;;;;;;;6.97;6.07;;;13.30;99.90;;;;;;5052157;28;20198;-52
2023/10/10 03:02:56;;;;;;;8.03;7.23;;;13.30;99.90;;;;;;5050879;28;20205;-52
2023/10/10 03:05:39;;;;;;;9.87;7.57;;;13.50;99.90;;;;;;5049804;28;20211;-52
2023/10/10 03:08:18;;;;;;;7.53;6.77;;;13.50;99.90;;;;;;5020927;22;20236;-52
2023/10/10 03:10:53;;;;;;;8.97;7.10;;;13.40;99.90;;;;;;4992414;28;20204;-53
2023/10/10 03:13:45;;;;;;;8.23;6.47;;;13.20;99.90;;;;;;4995495;28;20208;-52
2023/10/10 03:18:54;;;;;;;10.40;7.57;;;13.10;99.90;;;;;;4987909;28;20274;-53
2023/10/10 03:27:01;;;;;;;8.03;7.23;;;13.20;99.90;;;;;;4989516;28;20229;-52
2023/10/10 03:29:37;;;;;;;9.33;8.10;;;13.20;99.90;;;;;;4991658;28;20670;-51
2023/10/10 03:32:21;;;;;;;10.00;8.63;;;13.30;99.90;;;;;;4992153;28;20540;-52
2023/10/10 03:34:56;;;;;;;10.73;7.93;;;13.50;99.90;;;;;;4992054;28;20210;-52
2023/10/10 03:39:58;;;;;;;12.00;9.53;;;13.40;99.90;;;;;;4991573;28;20561;-52
2023/10/10 05:24:08;;;;;;;8.80;6.50;;;14.00;99.90;;;;;;5000674;28;20351;-52
2023/10/10 05:26:46;;;;;;;11.93;5.37;;;14.10;99.90;;;;;;4994849;28;20898;-52
2023/10/10 05:29:12;;;;;;;7.93;6.13;;;14.00;99.90;;;;;;4998749;28;20207;-52
2023/10/10 05:31:38;;;;;;;6.00;5.33;;;14.10;99.90;;;;;;4997137;28;20207;-52
2023/10/10 05:34:03;;;;;;;6.70;5.63;;;14.20;99.90;;;;;;5007745;28;20247;-52
2023/10/10 05:36:29;;;;;;;5.67;5.17;;;14.20;99.90;;;;;;4985489;28;20287;-52
2023/10/10 05:38:55;;;;;;;5.83;5.33;;;14.20;99.90;;;;;;4982426;28;20258;-52
2023/10/10 05:41:22;;;;;;;9.57;7.23;;;14.10;99.90;;;;;;5003083;28;20195;-52
2023/10/10 05:43:49;;;;;;;6.77;4.97;;;14.10;99.90;;;;;;4979720;28;20227;-52
2023/10/10 05:46:15;;;;;;;6.50;5.77;;;14.10;99.90;;;;;;4984396;28;20208;-52
2023/10/10 05:48:41;;;;;;;6.30;5.17;;;14.10;99.90;;;;;;4992490;28;20678;-52
2023/10/10 05:51:09;;;;;;;7.77;5.07;;;14.10;99.90;;;;;;4996150;28;20212;-52
2023/10/10 05:53:34;;;;;;;9.27;5.60;;;14.20;99.90;;;;;;4998140;28;20199;-51
2023/10/10 05:56:12;;;;;;;7.77;5.53;;;14.10;99.90;;;;;;4997848;28;20578;-60
2023/10/10 05:58:39;;;;;;;7.03;5.63;;;14.10;99.90;;;;;;4998269;28;20670;-55
2023/10/10 06:01:08;;;;;;;6.60;4.73;;;14.10;99.90;;;;;;4999747;28;20195;-56
2023/10/10 06:03:34;;;;;;;6.57;4.03;;;14.20;99.90;;;;;;5000828;28;20278;-55
2023/10/10 06:06:03;;;;;;;7.27;4.97;;;14.10;99.90;;;;;;4998880;28;20542;-55
2023/10/10 06:08:31;;;;;;;5.17;4.10;;;14.10;99.90;;;;;;4998469;28;20229;-51
2023/10/10 06:10:57;;;;;;;6.77;5.43;;;14.10;99.90;;;;;;4993428;28;20196;-52
2023/10/10 06:13:23;;;;;;;5.23;4.57;;;14.10;99.90;;;;;;4996904;28;20231;-54
2023/10/10 06:15:50;;;;;;;5.73;4.63;;;14.30;99.90;;;;;;4993153;28;20671;-54
2023/10/10 06:18:18;;;;;;;6.13;4.50;;;14.30;99.90;;;;;;4996827;28;20685;-53
2023/10/10 06:20:45;;;;;;;6.00;4.80;;;14.30;99.90;;;;;;4996573;28;20227;-53
2023/10/10 06:23:15;;;;;;;5.53;4.67;;;14.30;99.90;;;;;;4991403;28;20685;-56
2023/10/10 06:25:42;;;;;;;7.80;5.00;;;14.10;99.90;;;;;;4992511;28;20589;-53
2023/10/10 06:28:22;;;;;;;6.03;5.13;;;14.30;99.90;;;;;;4974599;28;20220;-52
2023/10/10 06:30:52;;;;;;;6.80;5.07;;;14.30;99.90;;;;;;4978397;28;20279;-53
2023/10/10 06:33:27;;;;;;;7.70;4.87;;;14.30;99.90;;;;;;4970136;28;20203;-53
2023/10/10 06:41:39;;;;;;;5.17;4.63;;;14.50;99.90;;;;;;4992674;28;20200;-56
2023/10/10 06:44:13;;;;;;;5.17;4.77;;;14.60;99.90;;;;;;4992873;28;20701;-58
2023/10/10 06:46:40;;;;;;;8.63;4.80;;;14.60;99.90;;;;;;4989523;28;20294;-58
2023/10/10 06:49:06;;;;;;;5.77;4.97;;;14.50;99.90;;;;;;4985870;28;20775;-58
2023/10/10 06:51:39;;;;;;;5.53;5.03;;;14.60;99.90;;;;;;4996322;28;20216;-59
2023/10/10 06:54:27;;;;;;;9.33;5.00;;;14.60;99.90;;;;;;4987638;28;20209;-56
2023/10/10 06:59:28;;;;;;;7.70;4.73;;;14.70;99.90;;;;;;4988217;28;20206;-56
2023/10/10 07:01:57;;;;;;;9.40;5.47;;;14.50;99.90;;;;;;4982533;28;20695;-55
2023/10/10 07:04:23;;;;;;;7.33;5.20;;;14.50;99.90;;;;;;4990657;28;20204;-55
2023/10/10 07:06:50;;;;;;;5.70;5.07;;;14.40;99.90;;;;;;4997078;28;20226;-55
2023/10/10 07:09:27;;;;;;;6.50;4.40;;;14.50;99.90;;;;;;4991397;28;20869;-56
2023/10/10 07:11:56;;;;;;;6.50;5.10;;;14.50;99.90;;;;;;4993210;28;20206;-55
2023/10/10 07:14:25;;;;;;;7.57;5.17;;;14.50;99.90;;;;;;4997770;28;20188;-56
2023/10/10 07:16:54;;;;;;;6.67;5.07;;;14.40;99.90;;;;;;5000832;28;20200;-56
2023/10/10 07:19:19;;;;;;;7.97;5.23;;;14.40;99.90;;;;;;4985524;28;20200;-60
2023/10/10 07:21:46;;;;;;;11.73;4.67;;;14.50;99.90;;;;;;4975357;28;20506;-55
2023/10/10 07:24:15;;;;;;;6.67;5.03;;;14.70;99.90;;;;;;4996297;28;20232;-55
2023/10/10 07:26:42;;;;;;;8.90;5.60;;;14.80;99.90;;;;;;4993735;28;20220;-57
2023/10/10 07:29:27;;;;;;;5.10;4.60;;;14.90;99.90;;;;;;5003168;28;20273;-58
2023/10/10 07:32:15;;;;;;;5.87;5.27;;;15.00;99.90;;;;;;4996793;28;20204;-58
2023/10/10 07:34:49;;;;;;;7.10;4.97;;;15.00;99.90;;;;;;4994940;28;20204;-64
2023/10/10 07:37:16;;;;;;;7.40;5.47;;;15.00;99.90;;;;;;4994138;28;20245;-56
2023/10/10 07:40:18;;;;;;;6.37;5.03;;;15.00;99.90;;;;;;4992421;28;20219;-58
2023/10/10 07:42:50;;;;;;;6.70;5.93;;;15.00;99.90;;;;;;4994802;28;20211;-58
2023/10/10 07:45:19;;;;;;;5.93;5.33;;;14.90;99.90;;;;;;5002819;28;21087;-58
2023/10/10 07:50:34;;;;;;;7.93;5.60;;;14.80;99.90;;;;;;4995941;28;20439;-56
2023/10/10 07:53:05;;;;;;;13.83;9.67;;;14.70;99.90;;;;;;4979914;28;20214;-56
2023/10/10 07:55:34;;;;;;;7.60;6.90;;;14.80;99.90;;;;;;4993845;28;20195;-55
2023/10/10 07:58:01;;;;;;;9.53;6.30;;;14.80;99.90;;;;;;4996801;28;20203;-59
2023/10/10 08:00:35;;;;;;;6.70;5.73;;;14.90;99.90;;;;;;4993703;28;20205;-56
2023/10/10 08:03:02;;;;;;;6.60;5.77;;;15.00;99.90;;;;;;4996214;28;20231;-55
2023/10/10 08:05:29;;;;;;;8.40;5.77;;;15.10;99.90;;;;;;4999799;28;20199;-57
2023/10/10 08:07:55;;;;;;;6.57;5.63;;;15.00;99.90;;;;;;4982895;28;20232;-57
2023/10/10 08:10:31;;;;;;;6.80;6.10;;;14.90;99.90;;;;;;4997434;28;20247;-56
2023/10/10 08:12:56;;;;;;;10.73;6.67;;;14.80;99.90;;;;;;4993667;28;20823;-56
2023/10/10 08:15:25;;;;;;;8.47;5.80;;;15.00;99.90;;;;;;4979409;28;20570;-56
2023/10/10 08:17:54;;;;;;;6.80;6.10;;;15.10;99.90;;;;;;4999538;28;20873;-57
2023/10/10 08:23:08;;;;;;;7.90;6.00;;;15.00;99.90;;;;;;4993423;28;20338;-57
2023/10/10 08:25:37;;;;;;;8.60;6.17;;;15.10;99.90;;;;;;4996022;28;20278;-55
2023/10/10 08:28:04;;;;;;;6.37;5.80;;;15.00;99.90;;;;;;4999783;28;20228;-55
2023/10/10 08:30:29;;;;;;;8.87;5.90;;;15.00;99.90;;;;;;4993521;28;20207;-56
2023/10/10 08:32:59;;;;;;;7.87;5.67;;;15.00;99.90;;;;;;4977562;28;20538;-57
2023/10/10 08:35:29;;;;;;;10.23;6.00;;;15.10;99.90;;;;;;4974367;28;20965;-55
2023/10/10 08:37:56;;;;;;;6.93;5.33;;;15.10;99.90;;;;;;4996125;28;20207;-55
2023/10/10 08:40:22;;;;;;;6.43;4.87;;;15.10;99.90;;;;;;4998835;28;20195;-55
2023/10/10 08:42:49;;;;;;;5.77;5.27;;;15.10;99.90;;;;;;4996776;28;20207;-55
2023/10/10 08:45:22;;;;;;;5.20;4.80;;;15.10;99.90;;;;;;4993916;28;20207;-56
2023/10/10 08:48:01;;;;;;;7.70;5.93;;;15.20;99.90;;;;;;4989766;28;20232;-57
2023/10/10 08:50:33;;;;;;;6.73;5.07;;;15.10;99.90;;;;;;4992961;28;20898;-58
2023/10/10 08:53:00;;;;;;;7.27;4.60;;;15.30;99.90;;;;;;4989919;28;20872;-57
2023/10/10 08:55:26;;;;;;;5.03;4.50;;;15.40;99.90;;;;;;4971508;28;20200;-55
2023/10/10 08:57:58;;;;;;;8.77;5.23;;;15.30;99.90;;;;;;4992191;28;20204;-55
2023/10/10 09:00:27;;;;;;;5.03;4.20;;;15.50;99.90;;;;;;4992525;28;20204;-55
2023/10/10 09:02:53;;;;;;;4.83;3.60;;;15.50;99.90;;;;;;4995077;28;20188;-56
2023/10/10 09:05:19;;;;;;;4.80;4.20;;;15.40;99.90;;;;;;4995362;28;20201;-57
2023/10/10 09:07:46;;;;;;;4.57;4.10;;;15.60;99.90;;;;;;4994235;28;20254;-53
2023/10/10 09:10:14;;;;;;;6.50;4.60;;;15.40;99.90;;;;;;4998014;28;20253;-56
2023/10/10 09:12:56;;;;;;;5.03;4.60;;;15.40;99.90;;;;;;4993411;28;20196;-56
2023/10/10 09:15:23;;;;;;;5.37;4.60;;;15.40;99.90;;;;;;4993344;28;20199;-56
2023/10/10 09:17:55;;;;;;;4.13;3.73;;;15.50;99.90;;;;;;4997800;28;20678;-55
2023/10/10 09:20:32;;;;;;;3.97;3.67;;;15.50;99.90;;;;;;4980213;28;20192;-55
2023/10/10 09:23:11;;;;;;;5.53;3.87;;;15.50;99.90;;;;;;5000878;28;20196;-56
2023/10/10 09:25:57;;;;;;;8.67;3.53;;;15.50;99.90;;;;;;4993288;28;20223;-62
2023/10/10 09:28:30;;;;;;;4.30;2.90;;;15.60;99.90;;;;;;4987284;28;20228;-55
2023/10/10 09:31:02;;;;;;;4.47;4.07;;;15.70;99.90;;;;;;4992547;28;20218;-55
2023/10/10 09:33:30;;;;;;;3.60;3.30;;;15.70;99.90;;;;;;4992706;28;20193;-58
2023/10/10 09:36:15;;;;;;;6.23;3.30;;;15.70;99.90;;;;;;4992467;28;20260;-53
2023/10/10 09:38:46;;;;;;;3.83;2.93;;;15.80;99.90;;;;;;4991417;28;20203;-53
2023/10/10 09:49:51;;;;;;;3.40;3.10;;;15.70;99.90;;;;;;4993849;28;20196;-62
2023/10/10 09:57:58;;;;;;;3.27;2.73;;;15.50;99.90;;;;;;4989619;28;20196;-57
2023/10/10 10:00:31;;;;;;;3.30;2.90;;;15.60;99.90;;;;;;4991340;28;20286;-56
2023/10/10 10:03:00;;;;;;;4.07;3.30;;;15.70;99.90;;;;;;4992855;28;20193;-56
2023/10/10 10:05:28;;;;;;;3.03;2.70;;;15.70;99.90;;;;;;4990838;28;20640;-56
2023/10/10 10:08:13;;;;;;;4.87;3.80;;;15.80;99.90;;;;;;4994085;28;20234;-57
2023/10/10 10:10:58;;;;;;;4.60;2.70;;;16.00;99.90;;;;;;4995252;28;20211;-61
2023/10/10 10:13:57;;;;;;;5.60;3.20;;;15.90;99.90;;;;;;4996506;28;20196;-56
2023/10/10 10:16:32;;;;;;;5.10;2.80;;;15.80;99.90;;;;;;4995325;28;20205;-55
2023/10/10 10:19:15;;;;;;;6.07;2.77;;;15.70;99.90;;;;;;4987501;28;20188;-56
2023/10/10 10:22:07;;;;;;;4.20;2.70;;;15.80;99.90;;;;;;4993103;28;20262;-56
2023/10/10 10:24:52;;;;;;;3.20;2.87;;;15.80;99.90;;;;;;4993982;28;20282;-57
2023/10/10 10:27:24;;;;;;;4.73;2.90;;;15.80;99.90;;;;;;4975336;28;20814;-57
2023/10/10 10:29:55;;;;;;;3.23;2.93;;;15.90;99.90;;;;;;4992325;28;20227;-57
2023/10/10 10:32:23;;;;;;;4.27;3.20;;;15.90;99.90;;;;;;4993116;28;20200;-57
2023/10/10 10:34:55;;;;;;;6.67;3.23;;;16.00;99.90;;;;;;4990082;28;20700;-56
2023/10/10 10:37:23;;;;;;;4.63;3.17;;;16.10;99.90;;;;;;4988031;28;20268;-56
2023/10/10 10:42:46;;;;;;;4.47;2.87;;;16.30;99.90;;;;;;4988535;28;20196;-54
2023/10/10 10:45:26;;;;;;;4.60;3.70;;;16.40;99.90;;;;;;4988694;28;20215;-55
2023/10/10 10:47:59;;;;;;;6.40;3.17;;;16.30;99.90;;;;;;4992713;28;20252;-56
2023/10/10 10:50:40;;;;;;;6.63;4.00;;;16.30;99.90;;;;;;4992179;28;20300;-58
2023/10/10 10:53:08;;;;;;;3.70;3.40;;;16.50;99.90;;;;;;4996562;28;20287;-57
2023/10/10 10:55:41;;;;;;;5.10;3.70;;;16.40;99.90;;;;;;4985535;28;20231;-58
2023/10/10 10:58:08;;;;;;;4.67;3.30;;;16.30;99.90;;;;;;4994097;28;20189;-55
2023/10/10 11:00:57;;;;;;;3.57;2.80;;;16.50;99.90;;;;;;4995334;28;20283;-57
2023/10/10 11:03:36;;;;;;;4.60;2.87;;;16.50;99.90;;;;;;4998546;28;20845;-57
2023/10/10 11:06:06;;;;;;;3.30;3.00;;;16.60;99.90;;;;;;4995018;28;20199;-65
2023/10/10 11:13:54;;;;;;;3.93;2.90;;;16.30;99.90;;;;;;5004461;28;20209;-57
2023/10/10 11:16:23;;;;;;;5.53;2.70;;;16.40;99.90;;;;;;4992932;28;20204;-57
2023/10/10 11:18:57;;;;;;;4.67;3.13;;;16.60;99.90;;;;;;5002811;28;20230;-57
2023/10/10 11:21:27;;;;;;;3.77;2.77;;;16.60;99.90;;;;;;5002224;28;20685;-57
2023/10/10 11:23:57;;;;;;;9.07;2.90;;;16.40;99.90;;;;;;5000300;28;20270;-55
2023/10/10 11:26:23;;;;;;;6.53;2.83;;;16.30;99.90;;;;;;4977077;28;20254;-57
2023/10/10 11:28:49;;;;;;;4.90;3.17;;;16.40;99.90;;;;;;4990308;28;20299;-59
2023/10/10 11:31:23;;;;;;;6.80;2.70;;;16.40;99.90;;;;;;4994468;28;20265;-56
2023/10/10 11:33:49;;;;;;;7.93;2.77;;;16.30;99.90;;;;;;4995193;28;20224;-56
2023/10/10 11:36:37;;;;;;;3.63;3.30;;;16.20;99.90;;;;;;4996770;28;20608;-56
2023/10/10 11:39:22;;;;;;;3.23;2.77;;;16.00;99.90;;;;;;4994932;28;20670;-62
2023/10/10 11:41:50;;;;;;;4.80;2.67;;;16.20;99.90;;;;;;4996136;28;20768;-54
2023/10/10 11:44:22;;;;;;;3.57;2.47;;;16.10;99.90;;;;;;4979884;28;20612;-60
2023/10/10 11:46:49;;;;;;;3.67;2.53;;;16.10;99.90;;;;;;5005375;28;20220;-57
2023/10/10 11:49:15;;;;;;;4.30;2.30;;;16.40;99.90;;;;;;5001007;28;20682;-66
2023/10/10 11:51:42;;;;;;;2.60;2.40;;;16.50;99.90;;;;;;4978781;28;20355;-63
2023/10/10 11:54:08;;;;;;;5.00;2.80;;;16.60;99.90;;;;;;4994738;28;20219;-58
2023/10/10 11:56:36;;;;;;;2.57;2.37;;;16.40;99.90;;;;;;4994934;28;20250;-58
2023/10/10 11:59:09;;;;;;;5.53;2.77;;;16.20;99.90;;;;;;4994705;28;20283;-59
2023/10/10 12:02:07;;;;;;;2.93;2.57;;;16.30;99.90;;;;;;4996214;28;20200;-57
2023/10/10 12:04:33;;;;;;;3.00;2.60;;;16.50;99.90;;;;;;4997301;28;20196;-56
2023/10/10 12:07:00;;;;;;;3.63;2.20;;;16.30;99.90;;;;;;5006578;28;20251;-61
2023/10/10 12:09:28;;;;;;;3.60;2.63;;;16.30;99.90;;;;;;4997486;28;20226;-61
2023/10/10 12:12:02;;;;;;;3.33;2.27;;;16.60;99.90;;;;;;4994783;28;20211;-56
2023/10/10 12:14:30;;;;;;;5.57;2.43;;;16.80;99.90;;;;;;4989847;28;20199;-56
2023/10/10 12:17:00;;;;;;;5.57;3.37;;;17.00;99.90;;;;;;4997769;28;20215;-58
2023/10/10 12:19:28;;;;;;;2.77;2.50;;;16.90;99.90;;;;;;4985026;28;20203;-65
2023/10/10 12:21:55;;;;;;;4.17;2.33;;;17.00;99.90;;;;;;4988728;28;20680;-56
2023/10/10 12:24:21;;;;;;;6.37;2.70;;;17.10;99.90;;;;;;4998407;28;20238;-55
2023/10/10 12:26:46;;;;;;;3.03;2.70;;;17.20;99.90;;;;;;4997081;28;20216;-58
2023/10/10 12:29:14;;;;;;;3.63;3.13;;;17.20;99.90;;;;;;4994168;28;20188;-67
2023/10/10 12:31:39;;;;;;;3.67;2.70;;;17.20;99.90;;;;;;4993743;28;20202;-62
2023/10/10 12:34:09;;;;;;;4.57;2.23;;;17.20;99.90;;;;;;4993797;28;20204;-60
2023/10/10 12:36:34;;;;;;;2.67;2.20;;;17.10;99.90;;;;;;4997310;28;20195;-60
2023/10/10 12:39:00;;;;;;;2.60;2.40;;;17.10;99.90;;;;;;4997749;28;20667;-60
2023/10/10 12:41:27;;;;;;;3.43;2.17;;;17.20;99.90;;;;;;4994705;28;20212;-62
2023/10/10 12:43:53;;;;;;;5.57;2.60;;;17.30;99.90;;;;;;4968975;28;20192;-57
2023/10/10 12:46:20;;;;;;;6.37;1.90;;;17.20;99.90;;;;;;4999821;28;20199;-57
2023/10/10 12:48:48;;;;;;;2.40;2.17;;;17.20;99.90;;;;;;4995839;28;20216;-58
2023/10/10 12:51:14;;;;;;;3.13;2.47;;;17.30;99.90;;;;;;4991340;28;20208;-66
2023/10/10 12:53:40;;;;;;;16.50;5.63;;;17.40;99.90;;;;;;4993429;28;20214;-56
2023/10/10 12:56:16;;;;;;;3.33;2.13;;;17.30;99.90;;;;;;4974761;28;20536;-56
2023/10/10 12:58:51;;;;;;;2.30;2.10;;;17.80;99.90;;;;;;4993009;28;20287;-56
2023/10/10 13:01:23;;;;;;;7.90;2.10;;;18.20;99.90;;;;;;5004982;28;20330;-64
2023/10/10 13:03:49;;;;;;;8.73;3.20;;;18.20;99.90;;;;;;5002538;28;20624;-62
2023/10/10 13:06:16;;;;;;;2.03;1.93;;;18.00;99.90;;;;;;4994523;28;20754;-64
2023/10/10 13:08:49;;;;;;;6.03;2.43;;;17.90;99.90;;;;;;5004740;28;20736;-57
2023/10/10 13:11:16;;;;;;;2.83;2.03;;;17.70;99.90;;;;;;4994949;28;20226;-58
2023/10/10 13:13:56;;;;;;;2.13;1.93;;;17.70;99.90;;;;;;4997714;28;20263;-63
2023/10/10 13:16:24;;;;;;;2.07;1.73;;;17.70;99.90;;;;;;5004781;28;20191;-58
2023/10/10 13:18:55;;;;;;;2.43;2.17;;;17.40;99.90;;;;;;4996965;28;20231;-58
2023/10/10 13:21:22;;;;;;;2.20;1.60;;;17.50;99.90;;;;;;4988127;28;20280;-57
2023/10/10 13:23:52;;;;;;;4.80;1.90;;;17.80;99.90;;;;;;5017853;23;20237;-58
2023/10/10 13:26:18;;;;;;;3.10;1.90;;;18.00;99.90;;;;;;4990067;28;20205;-56
2023/10/10 13:28:44;;;;;;;2.10;1.80;;;18.20;99.90;;;;;;4991453;28;20221;-56
2023/10/10 13:31:14;;;;;;;3.73;2.20;;;19.00;99.90;;;;;;4989666;28;20291;-57
2023/10/10 13:33:40;;;;;;;2.87;2.00;;;19.30;99.90;;;;;;4987032;28;20205;-57
2023/10/10 13:36:11;;;;;;;1.90;1.80;;;18.80;99.90;;;;;;4990183;28;20427;-57
2023/10/10 13:38:38;;;;;;;3.00;2.00;;;18.50;99.90;;;;;;4991011;28;20197;-57
2023/10/10 13:41:08;;;;;;;2.73;2.07;;;18.30;99.90;;;;;;4993240;28;20284;-57
2023/10/10 13:43:34;;;;;;;3.43;2.10;;;18.10;99.90;;;;;;4988954;28;20201;-60
2023/10/10 13:46:02;;;;;;;4.17;1.80;;;18.20;99.90;;;;;;4993444;28;20207;-57
2023/10/10 13:48:30;;;;;;;2.73;1.60;;;18.10;99.90;;;;;;4975856;28;20228;-57
2023/10/10 13:50:58;;;;;;;2.17;1.97;;;18.20;99.90;;;;;;4993126;28;20185;-57
2023/10/10 13:53:24;;;;;;;3.47;1.73;;;18.30;99.90;;;;;;4975669;28;20259;-57
2023/10/10 13:55:50;;;;;;;1.63;1.50;;;18.20;99.90;;;;;;4993743;28;20196;-57
2023/10/10 13:58:16;;;;;;;5.17;2.40;;;18.20;99.90;;;;;;4988353;28;20296;-57
2023/10/10 14:01:10;;;;;;;2.80;1.90;;;18.20;99.90;;;;;;4988536;28;20202;-57
2023/10/10 14:03:35;;;;;;;6.33;2.57;;;18.30;99.90;;;;;;4971503;28;20271;-56
2023/10/10 14:06:08;;;;;;;2.63;1.87;;;18.20;99.90;;;;;;4989790;28;20685;-58
2023/10/10 14:08:33;;;;;;;4.00;2.50;;;18.20;99.90;;;;;;4991071;28;21081;-58
2023/10/10 14:11:00;;;;;;;2.57;2.20;;;17.90;99.90;;;;;;4971433;28;20211;-58
2023/10/10 14:13:29;;;;;;;1.67;1.50;;;17.70;99.90;;;;;;4994045;28;20262;-57
2023/10/10 14:15:56;;;;;;;2.80;2.17;;;17.70;99.90;;;;;;4989174;28;20196;-57
2023/10/10 14:18:27;;;;;;;3.43;2.37;;;17.70;99.90;;;;;;4985763;28;20595;-58
2023/10/10 14:20:53;;;;;;;2.20;1.90;;;17.90;99.90;;;;;;4991641;28;20200;-56
2023/10/10 14:23:24;;;;;;;3.00;2.17;;;17.90;99.90;;;;;;4970443;28;20316;-58
2023/10/10 14:26:03;;;;;;;2.60;2.40;;;17.80;99.90;;;;;;4988647;28;20212;-57
2023/10/10 14:28:29;;;;;;;2.43;2.23;;;18.00;99.90;;;;;;4990245;28;20293;-57
2023/10/10 14:30:57;;;;;;;4.73;2.17;;;18.00;99.90;;;;;;4992145;28;20208;-58
2023/10/10 14:33:22;;;;;;;3.60;2.50;;;18.00;99.90;;;;;;4988777;28;20203;-57
2023/10/10 14:35:48;;;;;;;2.10;2.00;;;18.00;99.90;;;;;;4989718;28;20213;-57
2023/10/10 14:38:15;;;;;;;3.93;3.30;;;18.00;99.90;;;;;;4992449;28;20200;-57
2023/10/10 14:40:42;;;;;;;2.43;1.97;;;17.90;99.90;;;;;;4974321;28;20706;-57
2023/10/10 14:43:09;;;;;;;2.60;2.33;;;17.80;99.90;;;;;;4992099;28;20204;-57
2023/10/10 14:45:36;;;;;;;2.50;2.30;;;17.70;99.90;;;;;;4987403;28;20193;-57
2023/10/10 14:48:06;;;;;;;2.53;2.20;;;17.60;99.90;;;;;;4975819;28;20714;-57
2023/10/10 14:50:42;;;;;;;3.20;2.20;;;17.60;99.90;;;;;;4988683;28;20200;-59
2023/10/10 14:53:08;;;;;;;3.67;2.20;;;17.50;99.90;;;;;;4988899;28;20196;-59
2023/10/10 14:55:44;;;;;;;3.03;2.20;;;17.40;99.90;;;;;;4993750;28;20553;-57
2023/10/10 14:58:12;;;;;;;3.67;2.20;;;17.50;99.90;;;;;;4985558;28;20200;-58
2023/10/10 15:00:41;;;;;;;4.03;2.20;;;17.50;99.90;;;;;;4987579;28;20197;-58
2023/10/10 15:03:15;;;;;;;5.67;2.20;;;17.60;99.90;;;;;;4971311;28;20933;-58
2023/10/10 15:05:50;;;;;;;2.10;2.00;;;17.60;99.90;;;;;;4981998;28;20226;-57
2023/10/10 15:08:16;;;;;;;2.80;2.10;;;17.60;99.90;;;;;;4991300;28;20211;-58
2023/10/10 15:10:53;;;;;;;2.80;2.60;;;17.60;99.90;;;;;;4988413;28;20642;-60
2023/10/10 15:13:19;;;;;;;1.87;1.77;;;17.60;99.90;;;;;;4988763;28;20743;-57
2023/10/10 15:15:45;;;;;;;4.07;2.70;;;17.50;99.90;;;;;;4991354;28;20236;-58
2023/10/10 15:18:18;;;;;;;4.10;1.90;;;17.50;99.90;;;;;;4992758;28;20686;-57
2023/10/10 15:20:51;;;;;;;2.40;1.90;;;17.50;99.90;;;;;;4988588;28;20216;-59
2023/10/10 15:23:20;;;;;;;3.07;2.33;;;17.50;99.90;;;;;;4984878;28;20236;-56
2023/10/10 15:25:52;;;;;;;2.03;1.83;;;17.60;99.90;;;;;;4986518;28;20213;-57
2023/10/10 15:28:18;;;;;;;2.00;1.80;;;17.60;99.90;;;;;;4984197;28;20250;-57
2023/10/10 15:30:44;;;;;;;3.60;2.23;;;17.70;99.90;;;;;;4986854;28;20295;-63
2023/10/10 15:33:10;;;;;;;5.33;2.83;;;17.70;99.90;;;;;;4984478;28;20729;-57
2023/10/10 15:35:39;;;;;;;2.13;1.97;;;17.70;99.90;;;;;;4988574;28;20432;-57
2023/10/10 15:38:11;;;;;;;3.43;2.27;;;17.70;99.90;;;;;;4985323;28;20204;-57